createdAt,value
2023-03-06T00:00:42.491Z,98307.34
2023-03-06T00:01:48.700Z,98263.25
2023-03-06T00:02:52.087Z,98310.78
2023-03-06T00:03:55.139Z,98315.22
2023-03-06T00:04:57.424Z,98307.13
2023-03-06T00:06:00.230Z,98311.94
2023-03-06T00:07:01.957Z,98307.31
2023-03-06T00:08:03.706Z,98303.09
2023-03-06T00:09:05.289Z,98303.91
2023-03-06T00:10:07.321Z,98313.81
2023-03-06T00:11:08.948Z,98316.38
2023-03-06T00:12:10.737Z,98299.78
2023-03-06T00:13:15.201Z,98303.00
2023-03-06T00:14:16.836Z,98318.38
2023-03-06T00:15:19.162Z,98312.53
2023-03-06T00:16:20.784Z,98312.34
2023-03-06T00:17:22.363Z,98303.81
2023-03-06T00:18:23.951Z,98321.94
2023-03-06T00:19:25.574Z,98307.00
2023-03-06T00:20:27.322Z,98312.69
2023-03-06T00:21:28.903Z,98311.50
2023-03-06T00:22:30.439Z,98313.13
2023-03-06T00:23:32.003Z,98312.50
2023-03-06T00:24:33.593Z,98320.78
2023-03-06T00:25:38.557Z,98321.19
2023-03-06T00:26:41.275Z,98293.69
2023-03-06T00:27:43.214Z,98321.19
2023-03-06T00:28:44.965Z,98317.31
2023-03-06T00:29:49.203Z,98313.50
2023-03-06T00:30:50.848Z,98315.13
2023-03-06T00:31:52.424Z,98320.56
2023-03-06T00:32:54.538Z,98320.09
2023-03-06T00:33:56.131Z,98319.28
2023-03-06T00:34:57.719Z,98314.44
2023-03-06T00:35:59.291Z,98324.72
2023-03-06T00:37:00.881Z,98322.09
2023-03-06T00:38:02.428Z,98323.97
2023-03-06T00:39:04.271Z,98323.97
2023-03-06T00:40:12.922Z,98309.38
2023-03-06T00:41:14.532Z,98326.38
2023-03-06T00:42:17.393Z,98329.59
2023-03-06T00:43:18.968Z,98329.78
2023-03-06T00:44:20.517Z,98323.91
2023-03-06T00:45:22.225Z,98328.78
2023-03-06T00:46:23.767Z,98329.59
2023-03-06T00:47:25.310Z,98341.22
2023-03-06T00:48:26.838Z,98319.59
2023-03-06T00:49:28.385Z,98334.56
2023-03-06T00:50:29.969Z,98323.44
2023-03-06T00:51:31.514Z,98329.94
2023-03-06T00:52:33.430Z,98295.25
2023-03-06T00:53:34.990Z,98319.75
2023-03-06T00:54:36.559Z,98331.50
2023-03-06T00:55:38.083Z,98334.13
2023-03-06T00:56:39.654Z,98332.69
2023-03-06T00:57:41.463Z,98331.50
2023-03-06T00:58:42.998Z,98329.63
2023-03-06T00:59:44.645Z,98323.38
2023-03-06T01:00:46.332Z,98333.28
2023-03-06T01:01:48.040Z,98337.09
2023-03-06T01:02:49.670Z,98329.03
2023-03-06T01:03:51.232Z,98331.41
2023-03-06T01:04:52.792Z,98334.47
2023-03-06T01:05:54.324Z,98339.50
2023-03-06T01:06:55.880Z,98329.41
2023-03-06T01:07:57.409Z,98344.56
2023-03-06T01:08:59.332Z,98338.69
2023-03-06T01:10:00.925Z,98339.91
2023-03-06T01:11:02.457Z,98334.69
2023-03-06T01:12:04.202Z,98338.28
2023-03-06T01:13:06.379Z,98327.59
2023-03-06T01:14:07.959Z,98342.53
2023-03-06T01:15:12.704Z,98337.88
2023-03-06T01:16:18.703Z,98335.91
2023-03-06T01:17:20.278Z,98338.25
2023-03-06T01:18:21.854Z,98331.56
2023-03-06T01:19:23.462Z,98331.75
2023-03-06T01:20:25.195Z,98331.75
2023-03-06T01:21:26.802Z,98327.28
2023-03-06T01:22:28.399Z,98326.91
2023-03-06T01:23:29.985Z,98330.53
2023-03-06T01:24:31.615Z,98329.31
2023-03-06T01:25:33.182Z,98324.66
2023-03-06T01:26:34.745Z,98335.75
2023-03-06T01:27:36.365Z,98334.94
2023-03-06T01:28:39.169Z,98328.91
2023-03-06T01:29:40.735Z,98316.69
2023-03-06T01:30:42.275Z,98340.75
2023-03-06T01:31:43.803Z,98340.72
2023-03-06T01:32:45.845Z,98336.41
2023-03-06T01:33:47.386Z,98329.97
2023-03-06T01:34:48.996Z,98316.22
2023-03-06T01:35:50.567Z,98337.66
2023-03-06T01:36:52.143Z,98338.47
2023-03-06T01:37:53.667Z,98337.28
2023-03-06T01:38:55.236Z,98331.78
2023-03-06T01:39:56.831Z,98334.66
2023-03-06T01:40:58.506Z,98326.72
2023-03-06T01:42:00.130Z,98332.03
2023-03-06T01:43:23.440Z,98335.47
2023-03-06T01:44:25.041Z,98340.91
2023-03-06T01:45:26.549Z,98336.25
2023-03-06T01:46:45.068Z,98340.63
2023-03-06T01:47:46.625Z,98343.63
2023-03-06T01:48:50.195Z,98335.28
2023-03-06T01:49:51.899Z,98347.66
2023-03-06T01:50:54.347Z,98331.03
2023-03-06T01:52:01.661Z,98342.97
2023-03-06T01:53:03.248Z,98339.97
2023-03-06T01:54:11.407Z,98335.91
2023-03-06T01:55:17.460Z,98346.38
2023-03-06T01:56:19.765Z,98331.63
2023-03-06T01:57:33.944Z,98343.97
2023-03-06T01:58:36.041Z,98346.75
2023-03-06T01:59:40.461Z,98344.75
2023-03-06T02:00:42.025Z,98346.38
2023-03-06T02:01:44.732Z,98349.00
2023-03-06T02:03:12.671Z,98340.72
2023-03-06T02:04:14.675Z,98348.75
2023-03-06T02:05:16.228Z,98350.56
2023-03-06T02:06:21.691Z,98352.00
2023-03-06T02:07:23.591Z,98350.19
2023-03-06T02:08:26.681Z,98358.41
2023-03-06T02:09:30.947Z,98354.16
2023-03-06T02:10:32.865Z,98358.34
2023-03-06T02:11:34.528Z,98353.13
2023-03-06T02:12:37.674Z,98353.13
2023-03-06T02:13:40.343Z,98342.53
2023-03-06T02:14:42.722Z,98355.88
2023-03-06T02:15:44.337Z,98348.19
2023-03-06T02:16:46.001Z,98348.81
2023-03-06T02:17:48.759Z,98349.06
2023-03-06T02:18:51.468Z,98340.34
2023-03-06T02:20:02.991Z,98361.34
2023-03-06T02:21:08.610Z,98364.97
2023-03-06T02:22:10.722Z,98351.00
2023-03-06T02:23:22.755Z,98342.53
2023-03-06T02:24:24.315Z,98359.09
2023-03-06T02:25:44.238Z,98358.03
2023-03-06T02:26:47.619Z,98366.25
2023-03-06T02:27:49.726Z,98359.66
2023-03-06T02:28:51.286Z,98361.66
2023-03-06T02:29:52.845Z,98346.69
2023-03-06T02:30:55.695Z,98365.53
2023-03-06T02:31:57.648Z,98364.31
2023-03-06T02:32:59.256Z,98357.41
2023-03-06T02:34:20.973Z,98362.19
2023-03-06T02:35:38.467Z,98354.28
2023-03-06T02:36:53.813Z,98352.69
2023-03-06T02:37:57.838Z,98360.06
2023-03-06T02:39:00.057Z,98367.94
2023-03-06T02:40:09.439Z,98365.13
2023-03-06T02:41:10.987Z,98357.81
2023-03-06T02:42:18.976Z,98365.31
2023-03-06T02:43:25.600Z,98362.88
2023-03-06T02:44:28.635Z,98362.06
2023-03-06T02:45:37.896Z,98363.69
2023-03-06T02:46:39.556Z,98362.06
2023-03-06T02:47:41.137Z,98357.22
2023-03-06T02:48:42.695Z,98368.50
2023-03-06T02:49:44.237Z,98362.81
2023-03-06T02:50:46.644Z,98363.25
2023-03-06T02:51:48.194Z,98367.69
2023-03-06T02:52:49.735Z,98357.41
2023-03-06T02:53:51.275Z,98344.22
2023-03-06T02:54:52.975Z,98344.22
2023-03-06T02:55:54.488Z,98354.34
2023-03-06T02:56:56.026Z,98353.53
2023-03-06T02:57:57.636Z,98367.25
2023-03-06T02:58:59.193Z,98353.53
2023-03-06T03:00:00.814Z,98358.94
2023-03-06T03:01:02.426Z,98361.09
2023-03-06T03:02:04.284Z,98364.34
2023-03-06T03:03:06.331Z,98365.91
2023-03-06T03:04:08.590Z,98365.91
2023-03-06T03:05:10.171Z,98357.06
2023-03-06T03:06:11.704Z,98362.53
2023-03-06T03:07:13.235Z,98365.97
2023-03-06T03:08:15.041Z,98368.41
2023-03-06T03:09:16.663Z,98365.78
2023-03-06T03:10:18.478Z,98366.78
2023-03-06T03:11:20.069Z,98361.09
2023-03-06T03:12:22.482Z,98369.22
2023-03-06T03:13:24.691Z,98362.72
2023-03-06T03:14:26.224Z,98360.09
2023-03-06T03:15:28.001Z,98364.34
2023-03-06T03:16:29.574Z,98362.19
2023-03-06T03:17:31.445Z,98356.69
2023-03-06T03:18:33.259Z,98352.06
2023-03-06T03:19:35.038Z,98349.28
2023-03-06T03:20:36.566Z,98361.19
2023-03-06T03:21:39.918Z,98352.06
2023-03-06T03:22:41.915Z,98351.91
2023-03-06T03:23:43.666Z,98354.34
2023-03-06T03:24:45.811Z,98363.81
2023-03-06T03:25:47.449Z,98348.66
2023-03-06T03:26:48.969Z,98345.84
2023-03-06T03:27:50.899Z,98346.66
2023-03-06T03:28:52.470Z,98345.66
2023-03-06T03:29:57.519Z,98354.78
2023-03-06T03:31:03.220Z,98333.31
2023-03-06T03:32:05.248Z,98353.16
2023-03-06T03:33:07.022Z,98361.19
2023-03-06T03:34:08.787Z,98358.56
2023-03-06T03:35:11.225Z,98350.72
2023-03-06T03:36:12.821Z,98355.50
2023-03-06T03:37:14.469Z,98362.38
2023-03-06T03:38:16.030Z,98351.72
2023-03-06T03:39:17.570Z,98354.06
2023-03-06T03:40:19.108Z,98366.41
2023-03-06T03:41:20.710Z,98366.06
2023-03-06T03:42:22.427Z,98361.00
2023-03-06T03:43:24.099Z,98353.34
2023-03-06T03:44:25.745Z,98355.97
2023-03-06T03:45:27.380Z,98357.22
2023-03-06T03:46:29.009Z,98352.72
2023-03-06T03:47:30.610Z,98355.97
2023-03-06T03:48:32.170Z,98357.75
2023-03-06T03:49:33.754Z,98353.06
2023-03-06T03:50:35.310Z,98356.13
2023-03-06T03:51:37.028Z,98346.22
2023-03-06T03:52:38.637Z,98359.13
2023-03-06T03:53:40.232Z,98364.00
2023-03-06T03:54:41.768Z,98349.81
2023-03-06T03:55:43.325Z,98343.19
2023-03-06T03:56:45.262Z,98353.69
2023-03-06T03:57:46.850Z,98349.75
2023-03-06T03:58:48.429Z,98359.69
2023-03-06T03:59:49.979Z,98357.44
2023-03-06T04:00:51.600Z,98358.06
2023-03-06T04:01:56.062Z,98360.84
2023-03-06T04:02:57.698Z,98361.66
2023-03-06T04:03:59.325Z,98369.16
2023-03-06T04:05:01.082Z,98359.06
2023-03-06T04:06:02.711Z,98359.41
2023-03-06T04:07:04.481Z,98366.53
2023-03-06T04:08:06.212Z,98364.72
2023-03-06T04:09:07.886Z,98369.16
2023-03-06T04:10:12.133Z,98369.75
2023-03-06T04:11:13.656Z,98367.31
2023-03-06T04:12:15.448Z,98367.53
2023-03-06T04:13:20.242Z,98373.00
2023-03-06T04:14:21.800Z,98368.53
2023-03-06T04:15:23.493Z,98372.19
2023-03-06T04:16:25.122Z,98355.53
2023-03-06T04:17:27.417Z,98371.97
2023-03-06T04:18:29.429Z,98378.41
2023-03-06T04:19:31.028Z,98382.25
2023-03-06T04:20:32.613Z,98374.56
2023-03-06T04:21:34.176Z,98379.63
2023-03-06T04:22:35.682Z,98362.16
2023-03-06T04:23:37.221Z,98384.84
2023-03-06T04:24:38.754Z,98382.41
2023-03-06T04:25:40.404Z,98390.09
2023-03-06T04:26:41.965Z,98393.69
2023-03-06T04:27:43.542Z,98387.03
2023-03-06T04:28:45.109Z,98395.69
2023-03-06T04:29:46.687Z,98385.13
2023-03-06T04:30:48.253Z,98396.50
2023-03-06T04:31:49.852Z,98396.22
2023-03-06T04:32:51.409Z,98395.22
2023-03-06T04:33:53.103Z,98396.84
2023-03-06T04:34:54.631Z,98402.25
2023-03-06T04:35:56.378Z,98394.06
2023-03-06T04:36:57.966Z,98404.53
2023-03-06T04:37:59.550Z,98397.03
2023-03-06T04:39:01.907Z,98404.69
2023-03-06T04:40:04.235Z,98410.47
2023-03-06T04:41:05.926Z,98405.63
2023-03-06T04:42:07.721Z,98411.44
2023-03-06T04:43:09.336Z,98407.66
2023-03-06T04:44:10.980Z,98404.88
2023-03-06T04:45:12.542Z,98401.19
2023-03-06T04:46:14.242Z,98403.19
2023-03-06T04:47:17.551Z,98407.84
2023-03-06T04:48:20.512Z,98412.44
2023-03-06T04:49:22.071Z,98405.97
2023-03-06T04:50:24.980Z,98407.22
2023-03-06T04:51:26.911Z,98409.66
2023-03-06T04:52:28.451Z,98416.09
2023-03-06T04:53:30.046Z,98416.91
2023-03-06T04:54:31.751Z,98410.41
2023-03-06T04:55:33.328Z,98415.06
2023-03-06T04:56:34.888Z,98411.44
2023-03-06T04:57:36.972Z,98415.50
2023-03-06T04:58:38.791Z,98410.91
2023-03-06T04:59:40.307Z,98420.84
2023-03-06T05:00:41.857Z,98415.78
2023-03-06T05:01:43.665Z,98416.16
2023-03-06T05:02:45.929Z,98423.47
2023-03-06T05:03:47.480Z,98413.53
2023-03-06T05:04:49.010Z,98414.16
2023-03-06T05:05:50.571Z,98418.88
2023-03-06T05:06:52.104Z,98418.28
2023-03-06T05:07:54.290Z,98422.72
2023-03-06T05:08:55.990Z,98425.63
2023-03-06T05:09:57.550Z,98415.50
2023-03-06T05:11:01.625Z,98425.25
2023-03-06T05:12:03.587Z,98426.44
2023-03-06T05:13:05.763Z,98425.63
2023-03-06T05:14:07.343Z,98426.59
2023-03-06T05:15:10.772Z,98425.44
2023-03-06T05:16:12.364Z,98426.25
2023-03-06T05:17:13.991Z,98425.25
2023-03-06T05:18:15.626Z,98421.81
2023-03-06T05:19:17.160Z,98428.28
2023-03-06T05:20:18.803Z,98433.00
2023-03-06T05:21:20.333Z,98430.38
2023-03-06T05:22:22.103Z,98429.09
2023-03-06T05:23:23.633Z,98433.00
2023-03-06T05:24:25.159Z,98433.16
2023-03-06T05:25:26.762Z,98449.75
2023-03-06T05:26:28.288Z,98437.06
2023-03-06T05:27:29.859Z,98440.09
2023-03-06T05:28:31.399Z,98436.31
2023-03-06T05:29:32.920Z,98444.59
2023-03-06T05:30:34.700Z,98435.75
2023-03-06T05:31:36.265Z,98444.75
2023-03-06T05:32:38.041Z,98447.63
2023-03-06T05:33:39.598Z,98449.38
2023-03-06T05:34:41.203Z,98443.03
2023-03-06T05:35:47.645Z,98452.19
2023-03-06T05:36:49.246Z,98447.28
2023-03-06T05:37:51.059Z,98456.72
2023-03-06T05:38:52.963Z,98435.25
2023-03-06T05:39:54.533Z,98451.53
2023-03-06T05:40:56.168Z,98455.47
2023-03-06T05:41:57.779Z,98449.06
2023-03-06T05:42:59.321Z,98446.69
2023-03-06T05:44:00.870Z,98461.28
2023-03-06T05:45:04.530Z,98455.25
2023-03-06T05:46:07.127Z,98463.75
2023-03-06T05:47:09.594Z,98462.97
2023-03-06T05:48:13.935Z,98460.94
2023-03-06T05:49:15.611Z,98464.00
2023-03-06T05:50:17.151Z,98467.06
2023-03-06T05:51:18.742Z,98460.19
2023-03-06T05:52:20.629Z,98471.50
2023-03-06T05:53:22.192Z,98470.72
2023-03-06T05:54:24.456Z,98468.50
2023-03-06T05:55:25.997Z,98471.94
2023-03-06T05:56:27.525Z,98472.53
2023-03-06T05:57:29.158Z,98468.72
2023-03-06T05:58:32.617Z,98476.84
2023-03-06T05:59:34.206Z,98480.47
2023-03-06T06:00:35.726Z,98474.78
2023-03-06T06:01:37.263Z,98485.72
2023-03-06T06:02:39.595Z,98470.16
2023-03-06T06:03:41.568Z,98469.91
2023-03-06T06:04:43.373Z,98470.75
2023-03-06T06:05:44.952Z,98480.47
2023-03-06T06:06:46.534Z,98483.50
2023-03-06T06:07:48.160Z,98492.63
2023-03-06T06:08:49.725Z,98484.75
2023-03-06T06:09:53.038Z,98479.06
2023-03-06T06:10:54.565Z,98494.22
2023-03-06T06:12:02.380Z,98488.56
2023-03-06T06:13:03.977Z,98490.59
2023-03-06T06:14:05.578Z,98482.94
2023-03-06T06:15:07.802Z,98475.44
2023-03-06T06:16:11.945Z,98483.31
2023-03-06T06:17:13.559Z,98479.25
2023-03-06T06:18:15.107Z,98491.81
2023-03-06T06:19:20.381Z,98487.56
2023-03-06T06:20:22.432Z,98489.59
2023-03-06T06:21:23.964Z,98493.22
2023-03-06T06:22:25.582Z,98484.94
2023-03-06T06:23:27.118Z,98496.25
2023-03-06T06:24:28.684Z,98489.19
2023-03-06T06:25:30.300Z,98495.66
2023-03-06T06:26:31.838Z,98499.50
2023-03-06T06:27:33.366Z,98491.41
2023-03-06T06:28:35.593Z,98497.88
2023-03-06T06:29:37.139Z,98488.97
2023-03-06T06:30:38.772Z,98496.47
2023-03-06T06:31:40.957Z,98500.13
2023-03-06T06:32:42.546Z,98499.91
2023-03-06T06:33:44.113Z,98486.75
2023-03-06T06:34:45.664Z,98496.28
2023-03-06T06:35:47.274Z,98496.69
2023-03-06T06:36:51.046Z,98502.97
2023-03-06T06:37:54.425Z,98508.84
2023-03-06T06:38:56.281Z,98492.06
2023-03-06T06:39:57.899Z,98503.19
2023-03-06T06:41:32.997Z,98487.19
2023-03-06T06:42:31.979Z,98508.25
2023-03-06T06:43:35.819Z,98500.56
2023-03-06T06:44:38.294Z,98510.06
2023-03-06T06:45:39.885Z,98502.38
2023-03-06T06:48:05.531Z,98500.81
2023-03-06T06:49:07.117Z,98502.22
2023-03-06T06:50:12.981Z,98511.75
2023-03-06T06:51:14.568Z,98512.53
2023-03-06T06:52:16.142Z,98514.19
2023-03-06T06:53:17.685Z,98512.94
2023-03-06T06:54:20.213Z,98514.97
2023-03-06T06:55:21.792Z,98515.78
2023-03-06T06:56:23.356Z,98513.13
2023-03-06T06:57:25.006Z,98512.31
2023-03-06T06:58:27.156Z,98515.34
2023-03-06T06:59:28.710Z,98515.50
2023-03-06T07:00:30.400Z,98518.31
2023-03-06T07:01:32.643Z,98510.00
2023-03-06T07:02:34.278Z,98509.72
2023-03-06T07:03:36.043Z,98515.50
2023-03-06T07:04:42.464Z,98500.81
2023-03-06T07:05:57.717Z,98509.25
2023-03-06T07:06:59.929Z,98512.00
2023-03-06T07:08:01.470Z,98513.81
2023-03-06T07:09:04.025Z,98499.03
2023-03-06T07:10:08.776Z,98508.13
2023-03-06T07:11:17.507Z,98516.91
2023-03-06T07:12:19.017Z,98513.13
2023-03-06T07:13:20.570Z,98512.03
2023-03-06T07:14:22.145Z,98519.34
2023-03-06T07:15:26.853Z,98515.63
2023-03-06T07:16:28.561Z,98519.75
2023-03-06T07:17:30.195Z,98527.84
2023-03-06T07:18:31.801Z,98527.06
2023-03-06T07:19:33.443Z,98522.97
2023-03-06T07:20:35.055Z,98526.41
2023-03-06T07:21:36.632Z,98525.03
2023-03-06T07:22:50.237Z,98525.03
2023-03-06T07:23:52.741Z,98523.19
2023-03-06T07:24:54.313Z,98526.34
2023-03-06T07:25:57.348Z,98529.47
2023-03-06T07:26:58.888Z,98519.00
2023-03-06T07:28:00.539Z,98530.25
2023-03-06T07:29:03.598Z,98531.06
2023-03-06T07:30:06.386Z,98530.72
2023-03-06T07:31:09.969Z,98540.28
2023-03-06T07:32:11.945Z,98527.03
2023-03-06T07:33:14.541Z,98534.03
2023-03-06T07:34:16.154Z,98538.56
2023-03-06T07:35:20.499Z,98534.69
2023-03-06T07:36:23.997Z,98535.75
2023-03-06T07:37:25.584Z,98539.56
2023-03-06T07:38:27.210Z,98531.63
2023-03-06T07:39:30.101Z,98538.94
2023-03-06T07:40:31.752Z,98536.59
2023-03-06T07:41:33.432Z,98538.53
2023-03-06T07:42:35.463Z,98536.94
2023-03-06T07:43:37.081Z,98550.09
2023-03-06T07:44:38.779Z,98545.56
2023-03-06T07:45:40.411Z,98555.97
2023-03-06T07:46:42.016Z,98547.38
2023-03-06T07:47:43.704Z,98544.72
2023-03-06T07:48:45.299Z,98541.81
2023-03-06T07:49:46.982Z,98544.19
2023-03-06T07:50:59.064Z,98547.94
2023-03-06T07:52:01.899Z,98536.16
2023-03-06T07:53:03.432Z,98546.75
2023-03-06T07:54:05.077Z,98545.03
2023-03-06T07:55:07.829Z,98537.41
2023-03-06T07:56:11.188Z,98536.19
2023-03-06T07:57:13.356Z,98547.84
2023-03-06T07:58:14.973Z,98536.44
2023-03-06T07:59:16.535Z,98537.88
2023-03-06T08:00:18.908Z,98541.97
2023-03-06T08:01:23.545Z,98546.41
2023-03-06T08:02:25.108Z,98549.41
2023-03-06T08:03:26.701Z,98544.16
2023-03-06T08:04:29.123Z,98547.72
2023-03-06T08:05:31.679Z,98554.78
2023-03-06T08:06:33.417Z,98552.69
2023-03-06T08:07:35.382Z,98548.75
2023-03-06T08:08:39.480Z,98548.63
2023-03-06T08:09:41.120Z,98542.19
2023-03-06T08:10:49.008Z,98540.34
2023-03-06T08:11:50.675Z,98538.81
2023-03-06T08:12:52.195Z,98541.00
2023-03-06T08:13:55.065Z,98542.63
2023-03-06T08:14:56.578Z,98541.00
2023-03-06T08:15:59.813Z,98534.88
2023-03-06T08:17:01.433Z,98532.69
2023-03-06T08:18:02.994Z,98539.44
2023-03-06T08:19:04.623Z,98539.06
2023-03-06T08:20:07.149Z,98535.59
2023-03-06T08:21:11.689Z,98533.88
2023-03-06T08:22:14.046Z,98529.53
2023-03-06T08:23:15.678Z,98527.47
2023-03-06T08:24:18.607Z,98526.97
2023-03-06T08:25:20.193Z,98523.50
2023-03-06T08:26:24.970Z,98534.84
2023-03-06T08:27:26.560Z,98528.09
2023-03-06T08:28:28.908Z,98523.75
2023-03-06T08:29:32.081Z,98522.88
2023-03-06T08:30:33.939Z,98528.38
2023-03-06T08:31:44.052Z,98518.31
2023-03-06T08:32:45.647Z,98526.75
2023-03-06T08:33:47.259Z,98526.88
2023-03-06T08:34:48.776Z,98515.59
2023-03-06T08:35:50.412Z,98504.47
2023-03-06T08:36:52.188Z,98528.00
2023-03-06T08:37:53.737Z,98515.44
2023-03-06T08:38:55.744Z,98513.03
2023-03-06T08:39:57.402Z,98504.34
2023-03-06T08:40:59.053Z,98508.66
2023-03-06T08:42:00.643Z,98512.63
2023-03-06T08:43:02.286Z,98512.41
2023-03-06T08:44:05.072Z,98517.00
2023-03-06T08:45:07.397Z,98510.03
2023-03-06T08:46:11.137Z,98513.53
2023-03-06T08:47:12.870Z,98513.97
2023-03-06T08:48:14.412Z,98510.84
2023-03-06T08:49:16.088Z,98508.22
2023-03-06T08:50:18.999Z,98515.13
2023-03-06T08:51:22.033Z,98515.38
2023-03-06T08:52:23.560Z,98506.03
2023-03-06T08:53:40.456Z,98503.84
2023-03-06T08:54:44.035Z,98513.47
2023-03-06T08:55:45.777Z,98512.66
2023-03-06T08:56:47.641Z,98508.22
2023-03-06T08:57:49.238Z,98502.06
2023-03-06T08:58:50.899Z,98502.47
2023-03-06T08:59:52.444Z,98499.09
2023-03-06T09:00:54.319Z,98501.91
2023-03-06T09:01:55.998Z,98489.53
2023-03-06T09:02:57.743Z,98482.94
2023-03-06T09:04:01.605Z,98489.53
2023-03-06T09:05:08.208Z,98483.75
2023-03-06T09:06:09.834Z,98488.56
2023-03-06T09:07:11.384Z,98493.03
2023-03-06T09:08:12.960Z,98488.78
2023-03-06T09:09:14.526Z,98493.28
2023-03-06T09:10:19.324Z,98491.47
2023-03-06T09:11:23.100Z,98480.09
2023-03-06T09:12:25.400Z,98496.72
2023-03-06T09:13:27.009Z,98494.38
2023-03-06T09:14:28.536Z,98491.09
2023-03-06T09:15:30.228Z,98494.34
2023-03-06T09:16:32.091Z,98491.94
2023-03-06T09:17:33.771Z,98489.28
2023-03-06T09:18:35.947Z,98487.81
2023-03-06T09:19:38.342Z,98489.19
2023-03-06T09:20:39.938Z,98491.50
2023-03-06T09:21:41.558Z,98490.88
2023-03-06T09:22:43.649Z,98487.22
2023-03-06T09:23:45.453Z,98480.69
2023-03-06T09:24:47.074Z,98493.06
2023-03-06T09:25:56.404Z,98479.72
2023-03-06T09:26:58.016Z,98492.47
2023-03-06T09:28:10.939Z,98469.41
2023-03-06T09:29:12.835Z,98481.59
2023-03-06T09:30:15.088Z,98492.75
2023-03-06T09:31:19.804Z,98487.03
2023-03-06T09:32:22.774Z,98490.94
2023-03-06T09:33:24.530Z,98483.81
2023-03-06T09:34:27.699Z,98486.00
2023-03-06T09:35:29.361Z,98484.94
2023-03-06T09:36:31.097Z,98482.91
2023-03-06T09:37:32.752Z,98490.84
2023-03-06T09:38:34.882Z,98489.03
2023-03-06T09:39:36.788Z,98483.22
2023-03-06T09:41:26.508Z,98482.84
2023-03-06T09:42:29.081Z,98483.13
2023-03-06T09:43:30.569Z,98478.00
2023-03-06T09:44:35.804Z,98483.25
2023-03-06T09:45:37.509Z,98488.56
2023-03-06T09:46:55.615Z,98473.69
2023-03-06T09:48:05.113Z,98478.59
2023-03-06T09:50:05.042Z,98474.63
2023-03-06T09:51:15.582Z,98481.53
2023-03-06T09:52:35.172Z,98475.00
2023-03-06T09:53:45.332Z,98479.13
2023-03-06T09:55:08.456Z,98469.41
2023-03-06T09:56:32.826Z,98473.22
2023-03-06T09:58:00.693Z,98476.59
2023-03-06T09:59:13.295Z,98481.47
2023-03-06T10:00:19.502Z,98475.22
2023-03-06T10:01:26.993Z,98477.75
2023-03-06T10:02:53.296Z,98477.53
2023-03-06T10:04:18.967Z,98479.97
2023-03-06T10:05:26.252Z,98476.22
2023-03-06T10:06:36.836Z,98464.94
2023-03-06T10:08:03.002Z,98474.84
2023-03-06T10:09:13.397Z,98468.63
2023-03-06T10:10:25.677Z,98475.25
2023-03-06T10:11:37.972Z,98467.03
2023-03-06T10:12:45.072Z,98465.59
2023-03-06T10:14:28.350Z,98475.41
2023-03-06T10:15:36.230Z,98466.47
2023-03-06T10:16:38.103Z,98471.94
2023-03-06T10:17:41.891Z,98467.38
2023-03-06T10:18:43.472Z,98467.50
2023-03-06T10:19:47.624Z,98467.53
2023-03-06T10:20:49.113Z,98462.28
2023-03-06T10:22:01.034Z,98461.66
2023-03-06T10:23:28.454Z,98464.38
2023-03-06T10:24:33.014Z,98467.69
2023-03-06T10:26:01.740Z,98469.53
2023-03-06T10:27:28.998Z,98471.50
2023-03-06T10:28:35.433Z,98464.16
2023-03-06T10:29:38.463Z,98465.09
2023-03-06T10:31:16.593Z,98448.72
2023-03-06T10:32:47.428Z,98459.56
2023-03-06T10:33:57.285Z,98460.03
2023-03-06T10:35:01.658Z,98463.66
2023-03-06T10:36:04.085Z,98455.97
2023-03-06T10:37:19.621Z,98454.16
2023-03-06T10:38:37.319Z,98453.59
2023-03-06T10:39:39.695Z,98457.38
2023-03-06T10:40:50.960Z,98446.09
2023-03-06T10:41:52.745Z,98441.59
2023-03-06T10:43:09.498Z,98450.75
2023-03-06T10:44:12.444Z,98448.56
2023-03-06T10:45:17.156Z,98448.09
2023-03-06T10:46:28.526Z,98436.53
2023-03-06T10:47:35.200Z,98441.59
2023-03-06T10:48:40.889Z,98433.94
2023-03-06T10:49:57.940Z,98426.66
2023-03-06T10:51:23.861Z,98436.41
2023-03-06T10:52:29.842Z,98426.53
2023-03-06T10:53:31.423Z,98421.06
2023-03-06T10:54:39.209Z,98433.44
2023-03-06T10:55:40.981Z,98432.13
2023-03-06T10:56:44.892Z,98425.84
2023-03-06T10:57:46.463Z,98424.97
2023-03-06T10:58:48.066Z,98426.88
2023-03-06T11:00:01.706Z,98429.03
2023-03-06T11:01:32.984Z,98420.53
2023-03-06T11:02:38.536Z,98418.47
2023-03-06T11:03:41.072Z,98421.94
2023-03-06T11:04:51.337Z,98421.25
2023-03-06T11:06:12.670Z,98403.16
2023-03-06T11:07:23.864Z,98410.13
2023-03-06T11:08:25.471Z,98408.78
2023-03-06T11:09:27.056Z,98410.69
2023-03-06T11:10:30.778Z,98406.63
2023-03-06T11:11:37.817Z,98396.72
2023-03-06T11:12:41.719Z,98401.19
2023-03-06T11:13:44.176Z,98396.22
2023-03-06T11:14:45.768Z,98399.63
2023-03-06T11:16:00.908Z,98398.38
2023-03-06T11:17:02.474Z,98395.41
2023-03-06T11:18:35.187Z,98397.97
2023-03-06T11:19:36.776Z,98391.97
2023-03-06T11:20:51.876Z,98394.75
2023-03-06T11:22:04.293Z,98389.19
2023-03-06T11:23:16.092Z,98395.63
2023-03-06T11:24:20.557Z,98391.38
2023-03-06T11:25:27.612Z,98387.44
2023-03-06T11:26:37.128Z,98382.03
2023-03-06T11:27:42.777Z,98389.72
2023-03-06T11:28:44.277Z,98379.75
2023-03-06T11:29:50.478Z,98377.69
2023-03-06T11:31:02.316Z,98371.53
2023-03-06T11:32:12.471Z,98376.88
2023-03-06T11:33:27.713Z,98379.91
2023-03-06T11:34:38.355Z,98377.47
2023-03-06T11:35:50.720Z,98378.44
2023-03-06T11:37:11.364Z,98373.91
2023-03-06T11:38:12.862Z,98371.16
2023-03-06T11:39:55.223Z,98375.50
2023-03-06T11:41:00.356Z,98379.69
2023-03-06T11:42:25.681Z,98374.03
2023-03-06T11:43:36.650Z,98374.00
2023-03-06T11:44:54.527Z,98365.78
2023-03-06T11:46:22.289Z,98364.31
2023-03-06T11:47:29.407Z,98360.50
2023-03-06T11:48:42.229Z,98357.81
2023-03-06T11:49:49.312Z,98352.47
2023-03-06T11:50:53.099Z,98354.53
2023-03-06T11:52:04.316Z,98346.16
2023-03-06T11:53:10.738Z,98349.59
2023-03-06T11:54:13.988Z,98342.78
2023-03-06T11:55:20.816Z,98334.97
2023-03-06T11:56:34.294Z,98351.84
2023-03-06T11:57:56.822Z,98348.38
2023-03-06T11:59:19.640Z,98335.09
2023-03-06T12:00:59.122Z,98340.44
2023-03-06T12:02:19.493Z,98334.03
2023-03-06T12:03:56.921Z,98332.97
2023-03-06T12:05:17.773Z,98331.66
2023-03-06T12:06:25.262Z,98329.50
2023-03-06T12:07:34.211Z,98323.31
2023-03-06T12:09:09.462Z,98331.88
2023-03-06T12:10:35.275Z,98327.19
2023-03-06T12:11:58.659Z,98332.00
2023-03-06T12:13:12.380Z,98335.09
2023-03-06T12:14:25.760Z,98327.66
2023-03-06T12:15:52.268Z,98335.34
2023-03-06T12:17:14.102Z,98315.31
2023-03-06T12:18:43.195Z,98318.53
2023-03-06T12:19:44.775Z,98315.88
2023-03-06T12:21:17.883Z,98318.53
2023-03-06T12:22:57.952Z,98315.31
2023-03-06T12:24:33.297Z,98306.16
2023-03-06T12:25:38.121Z,98312.59
2023-03-06T12:26:54.622Z,98307.78
2023-03-06T12:27:59.261Z,98307.25
2023-03-06T12:29:19.787Z,98310.19
2023-03-06T12:30:46.093Z,98300.34
2023-03-06T12:32:02.975Z,98303.56
2023-03-06T12:33:10.351Z,98301.47
2023-03-06T12:34:14.732Z,98299.34
2023-03-06T12:35:43.449Z,98296.69
2023-03-06T12:36:55.850Z,98289.47
2023-03-06T12:37:57.328Z,98302.50
2023-03-06T12:39:37.905Z,98297.19
2023-03-06T12:41:03.248Z,98296.38
2023-03-06T12:42:22.867Z,98294.78
2023-03-06T12:43:55.840Z,98296.94
2023-03-06T12:44:57.321Z,98290.81
2023-03-06T12:46:25.084Z,98271.06